createdAt,value
2022-10-28T00:05:38.830Z,84
2022-10-28T00:11:19.594Z,78
2022-10-28T00:16:59.976Z,80
2022-10-28T00:22:40.630Z,76
2022-10-28T00:28:20.937Z,74
2022-10-28T00:34:01.356Z,76
2022-10-28T00:39:41.535Z,86
2022-10-28T00:45:21.944Z,68
2022-10-28T00:51:02.163Z,82
2022-10-28T00:56:42.394Z,90
2022-10-28T01:02:24.012Z,84
2022-10-28T01:08:04.233Z,62
2022-10-28T01:13:44.084Z,68
2022-10-28T01:19:25.024Z,76
2022-10-28T01:30:46.123Z,72
2022-10-28T01:36:27.148Z,80
2022-10-28T01:42:07.611Z,80
2022-10-28T01:47:47.870Z,66
2022-10-28T01:53:28.087Z,80
2022-10-28T01:59:09.647Z,88
2022-10-28T02:10:29.593Z,86
2022-10-28T02:16:12.264Z,64
2022-10-28T02:21:52.378Z,68
2022-10-28T02:27:32.824Z,70
2022-10-28T02:33:12.905Z,82
2022-10-28T02:38:53.065Z,80
2022-10-28T02:50:16.950Z,72
2022-10-28T02:56:00.002Z,68
2022-10-28T03:01:42.483Z,70
2022-10-28T03:07:22.300Z,86
2022-10-28T03:13:02.094Z,76
2022-10-28T03:18:49.744Z,68
2022-10-28T03:30:09.901Z,68
2022-10-28T03:37:01.906Z,72
2022-10-28T03:42:44.911Z,70
2022-10-28T03:48:25.143Z,68
2022-10-28T03:54:05.061Z,98
2022-10-28T03:59:45.396Z,66
2022-10-28T04:05:25.346Z,72
2022-10-28T04:11:05.626Z,74
2022-10-28T04:16:45.640Z,104
2022-10-28T04:28:05.570Z,98
2022-10-28T04:33:45.876Z,94
2022-10-28T04:39:28.717Z,110
2022-10-28T04:45:09.109Z,104
2022-10-28T04:50:49.303Z,104
2022-10-28T04:56:29.462Z,104
2022-10-28T05:02:10.791Z,100
2022-10-28T05:07:54.075Z,104
2022-10-28T05:13:34.336Z,94
2022-10-28T05:19:15.042Z,100
2022-10-28T05:30:35.668Z,100
2022-10-28T05:36:16.291Z,106
2022-10-28T05:41:56.888Z,92
2022-10-28T05:47:40.661Z,104
2022-10-28T05:53:20.991Z,96
2022-10-28T05:59:01.096Z,106
2022-10-28T06:10:21.468Z,90
2022-10-28T06:15:59.992Z,96
2022-10-28T06:21:40.482Z,104
2022-10-28T06:27:20.786Z,104
2022-10-28T06:33:03.458Z,100
2022-10-28T06:38:43.378Z,90
2022-10-28T06:50:05.104Z,90
2022-10-28T06:55:45.407Z,102
2022-10-28T07:01:26.928Z,94
2022-10-28T07:07:07.119Z,98
2022-10-28T07:12:47.663Z,100
2022-10-28T07:18:27.992Z,106
2022-10-28T07:24:08.173Z,98
2022-10-28T07:29:48.434Z,104
2022-10-28T07:35:28.611Z,104
2022-10-28T07:41:08.626Z,106
2022-10-28T07:46:48.750Z,92
2022-10-28T07:52:29.431Z,98
2022-10-28T08:03:51.891Z,94
2022-10-28T08:09:31.944Z,98
2022-10-28T08:15:11.996Z,104
2022-10-28T08:26:35.437Z,108
2022-10-28T08:32:15.600Z,106
2022-10-28T08:43:58.619Z,98
2022-10-28T08:49:38.650Z,94
2022-10-28T08:55:18.804Z,110
2022-10-28T09:00:59.759Z,100
2022-10-28T09:06:40.547Z,116
2022-10-28T09:12:21.100Z,82
2022-10-28T09:18:04.629Z,34
2022-10-28T09:23:44.838Z,22
2022-10-28T09:29:25.012Z,22
2022-10-28T09:40:47.946Z,64
2022-10-28T09:46:27.709Z,92
2022-10-28T09:52:16.409Z,90
2022-10-28T09:57:58.560Z,94
2022-10-28T10:09:20.119Z,70
2022-10-28T10:14:59.857Z,114
2022-10-28T10:20:40.388Z,54
2022-10-28T10:26:21.135Z,18
2022-10-28T10:32:04.460Z,6
2022-10-28T10:37:44.816Z,8
2022-10-28T10:43:25.269Z,4
2022-10-28T10:49:11.312Z,22
2022-10-28T10:54:53.959Z,18
2022-10-28T11:00:37.387Z,18
2022-10-28T11:06:25.452Z,4
2022-10-28T11:12:06.229Z,30
2022-10-28T11:17:50.170Z,38
2022-10-28T11:23:30.359Z,26
2022-10-28T11:29:13.618Z,26
2022-10-28T11:34:53.937Z,20
2022-10-28T11:40:34.483Z,10
2022-10-28T11:46:14.006Z,26
2022-10-28T11:52:02.936Z,16
2022-10-28T11:57:48.595Z,10
2022-10-28T12:03:29.088Z,14
2022-10-28T12:14:53.912Z,4
2022-10-28T12:20:35.022Z,30
2022-10-28T12:26:17.760Z,22
2022-10-28T12:32:00.862Z,22
2022-10-28T12:37:49.329Z,92
2022-10-28T12:43:29.768Z,50
2022-10-28T12:54:54.899Z,30
2022-10-28T13:00:35.420Z,60
2022-10-28T13:06:16.480Z,28
2022-10-28T13:11:57.083Z,56
2022-10-28T13:17:37.765Z,16
2022-10-28T13:34:41.653Z,88
2022-10-28T13:40:21.777Z,76
2022-10-28T13:46:02.030Z,82
2022-10-28T13:51:42.352Z,98
2022-10-28T13:57:23.675Z,100
2022-10-28T14:03:05.390Z,92
2022-10-28T14:14:25.640Z,88
2022-10-28T14:20:17.540Z,98
2022-10-28T14:25:57.941Z,96
2022-10-28T14:31:38.067Z,78
2022-10-28T14:37:18.233Z,90
2022-10-28T14:42:58.642Z,100
2022-10-28T14:48:38.875Z,90
2022-10-28T14:54:19.235Z,110
2022-10-28T14:59:59.565Z,94
2022-10-28T15:05:39.732Z,94
2022-10-28T15:11:19.971Z,94
2022-10-28T15:17:00.471Z,80
2022-10-28T15:28:21.187Z,88
2022-10-28T15:34:01.287Z,104
2022-10-28T15:39:41.514Z,80
2022-10-28T15:45:21.668Z,94
2022-10-28T15:51:02.011Z,82
2022-10-28T15:56:42.060Z,74
2022-10-28T16:02:24.549Z,84
2022-10-28T16:08:05.534Z,86
2022-10-28T16:13:46.422Z,72
2022-10-28T16:19:29.395Z,86
2022-10-28T16:25:09.964Z,90
2022-10-28T16:30:51.324Z,84
2022-10-28T16:36:33.847Z,90
2022-10-28T16:42:14.458Z,82
2022-10-28T16:47:57.623Z,80
2022-10-28T16:53:42.499Z,86
2022-10-28T16:59:27.276Z,88
2022-10-28T17:05:10.241Z,84
2022-10-28T17:10:50.868Z,62
2022-10-28T17:16:31.582Z,86
2022-10-28T17:22:11.766Z,78
2022-10-28T17:27:54.668Z,88
2022-10-28T17:33:35.382Z,68
2022-10-28T17:39:27.158Z,76
2022-10-28T17:45:07.327Z,94
2022-10-28T17:50:47.614Z,88
2022-10-28T17:56:38.361Z,82
2022-10-28T18:02:22.489Z,104
2022-10-28T18:08:02.810Z,94
2022-10-28T18:13:42.917Z,98
2022-10-28T18:19:22.997Z,78
2022-10-28T18:25:06.307Z,56
2022-10-28T18:30:48.792Z,98
2022-10-28T18:36:28.744Z,90
2022-10-28T18:42:24.705Z,68
2022-10-28T18:53:53.388Z,84
2022-10-28T19:00:20.541Z,74
2022-10-28T19:06:08.776Z,90
2022-10-28T19:12:01.781Z,76
2022-10-28T19:17:50.977Z,70
2022-10-28T19:23:31.001Z,90
2022-10-28T19:29:11.004Z,68
2022-10-28T19:35:04.060Z,92
2022-10-28T19:40:47.916Z,68
2022-10-28T19:52:15.850Z,98
2022-10-28T19:57:58.915Z,106
2022-10-28T20:03:49.810Z,102
2022-10-28T20:09:30.057Z,102
2022-10-28T20:15:10.011Z,96
2022-10-28T20:20:50.233Z,108
2022-10-28T20:32:10.720Z,104
2022-10-28T20:37:51.576Z,118
2022-10-28T20:43:32.039Z,94
2022-10-28T20:49:12.119Z,98
2022-10-28T20:54:51.977Z,98
2022-10-28T21:00:32.146Z,110
2022-10-28T21:11:56.274Z,114
2022-10-28T21:17:36.476Z,104
2022-10-28T21:23:19.975Z,104
2022-10-28T21:29:01.472Z,96
2022-10-28T21:34:41.817Z,106
2022-10-28T21:40:22.125Z,104
2022-10-28T21:46:02.710Z,98
2022-10-28T21:51:43.305Z,102
2022-10-28T21:57:23.596Z,110
2022-10-28T22:03:03.887Z,104
2022-10-28T22:08:45.640Z,104
2022-10-28T22:14:25.909Z,94
2022-10-28T22:25:49.068Z,94
2022-10-28T22:31:29.545Z,96
2022-10-28T22:37:09.833Z,106
2022-10-28T22:42:50.719Z,104
2022-10-28T22:48:30.518Z,102
2022-10-28T22:54:10.415Z,106
2022-10-28T22:59:50.582Z,102
2022-10-28T23:05:30.666Z,104
2022-10-28T23:11:10.899Z,112
2022-10-28T23:16:50.933Z,104
2022-10-28T23:22:30.861Z,98
2022-10-28T23:28:11.109Z,96
2022-10-28T23:33:51.365Z,96
2022-10-28T23:39:31.658Z,106
2022-10-28T23:45:11.799Z,96
2022-10-28T23:50:51.890Z,104
2022-10-28T23:56:31.896Z,106
